Time;durP1;ratioP1;P1;durP2;ratioP2;P2;SDS_P1;SDS_P2;PMS_P1;PMS_P2;Temp;Humidity;BMP_temperature;BMP_pressure;BME280_temperature;BME280_humidity;BME280_pressure;Samples;Min_cycle;Max_cycle;Signal;HPM_P1;HPM_P2
2022/11/11 00:01:03;;;;;;;14.77;11.13;;;17.90;87.90;;;18.58;49.81;100128.00;5013244;28;20080;-77
2022/11/11 00:03:29;;;;;;;15.77;11.15;;;17.90;88.00;;;18.61;49.67;100123.84;5045357;28;20051;-77
2022/11/11 00:06:04;;;;;;;17.27;11.75;;;17.90;87.90;;;18.56;49.94;100130.22;5028460;28;20405;-78
2022/11/11 00:08:30;;;;;;;14.70;10.80;;;17.90;87.90;;;18.60;49.91;100127.72;5029236;28;20094;-77
2022/11/11 00:11:04;;;;;;;15.63;11.80;;;17.90;87.90;;;18.57;49.96;100133.78;5017416;28;20061;-78
2022/11/11 00:13:31;;;;;;;15.18;10.35;;;17.90;87.90;;;18.62;49.90;100144.69;5032642;28;20416;-77
2022/11/11 00:16:06;;;;;;;16.33;11.52;;;17.90;88.70;;;18.60;49.95;100144.19;5022610;28;20067;-77
2022/11/11 00:27:08;;;;;;;15.88;10.85;;;17.90;87.90;;;18.63;49.83;100147.16;5035498;28;20432;-78
2022/11/11 00:29:34;;;;;;;15.05;11.60;;;17.80;87.80;;;18.62;49.81;100152.94;5029322;28;20048;-77
2022/11/11 00:35:51;;;;;;;16.33;12.25;;;17.80;87.80;;;18.55;49.88;100158.81;5029694;28;20041;-77
2022/11/11 00:37:34;;;;;;;15.45;11.23;;;17.80;87.80;;;18.59;49.79;100162.59;5032098;28;20091;-77
2022/11/11 00:40:01;;;;;;;17.40;10.20;;;17.80;87.90;;;18.63;49.89;100163.66;5019746;28;20033;-77
2022/11/11 00:42:27;;;;;;;15.88;11.40;;;17.80;88.20;;;18.60;49.99;100158.75;5030334;28;20448;-77
2022/11/11 00:44:53;;;;;;;14.63;10.95;;;17.80;88.00;;;18.59;49.78;100172.78;5031368;28;20042;-77
2022/11/11 00:53:03;;;;;;;15.43;11.30;;;17.90;87.90;;;18.63;49.81;100165.59;5024180;28;20522;-77
2022/11/11 00:55:31;;;;;;;15.82;11.15;;;17.90;87.90;;;18.64;49.88;100159.78;5029408;28;20050;-77
2022/11/11 00:57:57;;;;;;;14.65;11.55;;;17.80;87.80;;;18.60;49.97;100156.00;5031937;28;20471;-77
2022/11/11 01:00:23;;;;;;;16.00;11.60;;;17.90;87.90;;;18.62;49.90;100144.69;5013659;28;20045;-77
2022/11/11 01:02:49;;;;;;;14.80;11.13;;;17.90;87.90;;;18.65;49.73;100155.94;5011792;28;20428;-77
2022/11/11 01:05:15;;;;;;;16.80;10.93;;;17.90;87.90;;;18.56;49.90;100160.44;4997824;28;20041;-77
2022/11/11 01:07:42;;;;;;;13.45;10.57;;;17.90;87.90;;;18.58;49.78;100158.22;5045814;28;20584;-77
2022/11/11 01:10:08;;;;;;;15.75;11.32;;;17.80;87.80;;;18.57;50.01;100158.50;5014289;28;20330;-77
2022/11/11 01:12:34;;;;;;;14.60;11.23;;;17.90;87.90;;;18.57;49.93;100156.59;5012426;28;20033;-77
2022/11/11 01:15:00;;;;;;;17.65;11.40;;;17.90;87.90;;;18.55;50.01;100149.75;5013161;28;20103;-77
2022/11/11 01:17:27;;;;;;;15.52;11.57;;;17.80;87.90;;;18.58;50.03;100149.97;5033769;28;20041;-77
2022/11/11 01:19:54;;;;;;;14.88;11.82;;;17.80;87.80;;;18.62;49.81;100144.69;5011945;28;20120;-77
2022/11/11 01:22:20;;;;;;;15.68;11.63;;;17.90;87.90;;;18.61;49.74;100149.38;5015752;28;20383;-77
2022/11/11 01:24:46;;;;;;;13.80;11.25;;;17.90;87.90;;;18.58;49.85;100138.16;5032376;28;20052;-77
2022/11/11 01:27:12;;;;;;;16.48;11.35;;;17.90;87.90;;;18.66;49.85;100140.25;5016776;28;20045;-77
2022/11/11 01:29:38;;;;;;;14.48;11.60;;;17.90;88.00;;;18.57;49.92;100136.50;5011793;28;20392;-77
2022/11/11 01:32:05;;;;;;;15.57;11.05;;;17.80;88.00;;;18.56;49.80;100141.19;5033833;28;20041;-77
2022/11/11 01:34:30;;;;;;;17.88;12.68;;;17.90;88.00;;;18.63;49.79;100136.16;5012731;28;20462;-77
2022/11/11 01:36:57;;;;;;;18.50;13.57;;;17.90;87.90;;;18.58;49.92;100140.91;5020454;28;20052;-77
2022/11/11 01:39:23;;;;;;;16.17;12.18;;;17.90;87.90;;;18.62;49.73;100141.94;5031829;28;20423;-77
2022/11/11 01:41:49;;;;;;;14.52;10.75;;;17.90;87.90;;;18.57;49.90;100140.09;5031504;28;20069;-77
2022/11/11 01:44:14;;;;;;;15.18;10.73;;;17.90;87.90;;;18.58;50.11;100149.16;5024574;28;20053;-76
2022/11/11 01:46:48;;;;;;;14.10;11.32;;;17.90;87.90;;;18.56;50.05;100141.19;5048176;28;20481;-77
2022/11/11 01:49:44;;;;;;;15.93;11.10;;;17.80;87.90;;;18.55;50.09;100144.25;5033549;28;20041;-77
2022/11/11 01:52:22;;;;;;;16.10;11.90;;;17.80;87.80;;;18.62;49.67;100144.69;5063776;28;20055;-77
2022/11/11 01:54:58;;;;;;;18.00;13.07;;;17.90;87.90;;;18.61;49.79;100151.31;5044934;28;20106;-77
2022/11/11 01:57:31;;;;;;;18.60;12.82;;;17.90;88.00;;;18.59;50.06;100156.28;5037903;28;20036;-77
2022/11/11 02:00:06;;;;;;;16.17;11.40;;;17.90;87.90;;;18.56;50.03;100152.19;5034256;28;20135;-77
2022/11/11 02:02:47;;;;;;;14.68;10.05;;;17.90;87.90;;;18.57;49.99;100151.09;5035193;28;20652;-77
2022/11/11 02:08:05;;;;;;;13.05;10.82;;;17.90;87.90;;;18.59;50.00;100150.78;5060273;28;20382;-77
2022/11/11 02:10:32;;;;;;;15.25;11.38;;;17.90;87.90;;;18.60;49.89;100156.00;5018353;28;20048;-77
2022/11/11 02:15:43;;;;;;;16.17;11.80;;;18.00;87.90;;;18.58;49.86;100157.41;5064673;28;20088;-77
2022/11/11 02:18:09;;;;;;;15.82;10.98;;;17.90;87.90;;;18.57;49.99;100151.09;5021961;28;20131;-77
2022/11/11 02:20:43;;;;;;;16.30;11.15;;;17.90;87.90;;;18.64;49.83;100147.97;5050225;28;20037;-77
2022/11/11 02:23:31;;;;;;;13.70;10.38;;;17.90;87.90;;;18.65;49.75;100152.38;5022513;28;20053;-77
2022/11/11 02:25:57;;;;;;;17.23;12.73;;;17.90;87.90;;;18.64;49.88;100156.22;5037882;28;20089;-77
2022/11/11 02:28:24;;;;;;;16.83;11.60;;;18.00;87.70;;;18.60;49.68;100155.19;5038565;28;20040;-77
2022/11/11 02:30:50;;;;;;;13.43;10.75;;;18.00;87.50;;;18.65;49.87;100155.94;5026386;28;20044;-77
2022/11/11 02:33:16;;;;;;;15.63;12.13;;;18.00;87.70;;;18.59;50.13;100162.59;5054195;28;20052;-77
2022/11/11 02:35:45;;;;;;;13.40;10.77;;;18.00;88.00;;;18.60;49.93;100171.69;5036390;28;20044;-77
2022/11/11 02:38:11;;;;;;;16.25;12.35;;;18.00;88.00;;;18.58;49.82;100173.91;5035697;28;20044;-77
2022/11/11 02:41:55;;;;;;;14.27;11.35;;;17.90;87.90;;;18.58;49.84;100168.41;5023679;28;20036;-77
2022/11/11 02:43:30;;;;;;;15.50;11.65;;;17.90;87.70;;;18.63;49.87;100166.41;5040529;28;20047;-76
2022/11/11 02:45:56;;;;;;;15.32;10.23;;;18.00;87.70;;;18.65;49.63;100171.63;5047478;28;20041;-77
2022/11/11 02:48:23;;;;;;;14.40;10.27;;;18.00;87.70;;;18.66;49.65;100173.25;5047069;28;20048;-77
2022/11/11 02:50:49;;;;;;;14.98;11.82;;;18.00;88.00;;;18.69;49.61;100171.84;5038666;28;20052;-77
2022/11/11 02:53:16;;;;;;;12.68;10.38;;;18.00;87.80;;;18.64;49.91;100172.72;5038534;28;20069;-77
2022/11/11 02:55:42;;;;;;;12.07;10.15;;;18.00;87.60;;;18.63;49.62;100180.13;5018162;28;20041;-77
2022/11/11 02:58:08;;;;;;;15.25;11.55;;;18.00;87.60;;;18.62;49.75;100180.41;5048362;28;20040;-77
2022/11/11 03:00:34;;;;;;;16.85;10.48;;;18.00;87.50;;;18.56;49.91;100173.38;5033963;28;20090;-77
2022/11/11 03:03:00;;;;;;;13.55;10.57;;;18.00;87.50;;;18.67;49.71;100172.13;5032586;28;20090;-77
2022/11/11 03:05:26;;;;;;;14.38;11.00;;;18.10;87.60;;;18.67;49.48;100174.84;5041519;28;20063;-77
2022/11/11 03:07:52;;;;;;;14.30;10.45;;;18.00;87.70;;;18.65;49.33;100168.88;5067907;28;20393;-77
2022/11/11 03:10:18;;;;;;;14.65;11.48;;;17.90;87.70;;;18.67;49.58;100174.84;5048898;28;20130;-77
2022/11/11 03:12:44;;;;;;;19.00;11.32;;;18.10;87.40;;;18.67;49.56;100174.84;5054766;28;20045;-78
2022/11/11 03:15:10;;;;;;;14.52;10.98;;;18.10;87.30;;;18.67;49.52;100180.34;5067090;28;20041;-77
2022/11/11 03:17:39;;;;;;;13.75;10.15;;;18.10;87.30;;;18.70;49.56;100173.47;5027233;28;20041;-77
2022/11/11 03:23:13;;;;;;;13.30;10.80;;;18.10;87.30;;;18.69;49.63;100161.66;5040705;28;20041;-77
2022/11/11 03:25:44;;;;;;;16.45;11.32;;;18.10;87.50;;;18.67;49.70;100163.88;5035972;28;20036;-77
2022/11/11 03:28:17;;;;;;;15.55;10.90;;;18.10;87.30;;;18.68;49.43;100182.00;5025066;28;20415;-77
2022/11/11 03:30:46;;;;;;;16.67;10.80;;;18.10;87.20;;;18.70;49.34;100165.22;5065632;28;20068;-77
2022/11/11 03:33:12;;;;;;;14.20;10.55;;;18.20;87.00;;;18.66;49.73;100170.50;5038853;28;20037;-77
2022/11/11 03:35:38;;;;;;;13.63;10.70;;;18.20;87.00;;;18.69;49.56;100169.09;5025374;28;20526;-77
2022/11/11 03:38:15;;;;;;;14.32;10.32;;;18.10;87.20;;;18.70;49.99;100177.03;5038027;28;20043;-78
2022/11/11 03:40:45;;;;;;;13.77;10.25;;;18.10;87.40;;;18.72;49.54;100177.53;5029838;28;20040;-78
2022/11/11 03:43:13;;;;;;;14.65;10.38;;;18.10;87.20;;;18.71;49.41;100172.34;5025132;28;20124;-78
2022/11/11 03:45:39;;;;;;;12.73;10.05;;;18.20;87.00;;;18.74;49.41;100169.81;5021384;28;20036;-78
2022/11/11 03:48:06;;;;;;;14.55;11.35;;;18.20;86.90;;;18.69;48.94;100164.41;5038039;28;20468;-77
2022/11/11 03:50:32;;;;;;;15.05;10.57;;;18.20;86.80;;;18.65;49.56;100169.69;5031394;28;20605;-77
2022/11/11 03:52:58;;;;;;;11.50;8.57;;;18.20;87.00;;;18.66;49.52;100174.06;5034153;28;20040;-77
2022/11/11 03:55:24;;;;;;;15.15;11.07;;;18.20;86.80;;;18.67;49.21;100169.38;5057881;28;20392;-77
2022/11/11 03:57:51;;;;;;;15.07;10.80;;;18.20;86.50;;;18.66;49.18;100168.56;5031317;28;20055;-77
2022/11/11 04:00:22;;;;;;;13.77;9.60;;;18.30;86.20;;;18.68;49.14;100175.72;5043260;28;20052;-77
2022/11/11 04:11:28;;;;;;;13.00;10.05;;;18.20;86.80;;;18.69;48.80;100161.66;5009239;28;20045;-77
2022/11/11 04:16:41;;;;;;;14.82;10.23;;;18.30;86.20;;;18.66;48.81;100157.56;5039981;28;20404;-77
2022/11/11 04:21:52;;;;;;;12.82;8.93;;;18.20;86.10;;;18.70;49.22;100159.72;5040330;28;20037;-77
2022/11/11 04:27:10;;;;;;;11.82;8.73;;;18.10;86.60;;;18.71;48.94;100158.63;5038182;28;20036;-77
2022/11/11 04:29:36;;;;;;;13.15;9.68;;;18.20;86.10;;;18.67;48.87;100158.38;5048896;28;20044;-77
2022/11/11 04:35:03;;;;;;;12.15;9.10;;;18.20;85.70;;;18.68;48.95;100168.28;5062804;28;20044;-77
2022/11/11 04:37:31;;;;;;;11.10;8.88;;;18.20;85.90;;;18.73;48.91;100164.66;5048961;28;20044;-77
2022/11/11 04:42:42;;;;;;;13.00;9.30;;;18.20;86.50;;;18.63;48.90;100160.09;5049039;28;20041;-77
2022/11/11 04:45:30;;;;;;;16.55;10.75;;;18.20;86.20;;;18.63;48.70;100163.66;5048465;28;20051;-77
2022/11/11 04:48:04;;;;;;;13.98;10.13;;;18.20;85.90;;;18.63;48.85;100162.84;5041735;28;20043;-77
2022/11/11 04:50:33;;;;;;;10.45;9.18;;;18.30;85.60;;;18.60;48.90;100166.19;5018698;28;20676;-77
2022/11/11 04:52:59;;;;;;;14.20;9.82;;;18.30;85.80;;;18.68;48.72;100171.03;5023944;28;20040;-77
2022/11/11 04:58:19;;;;;;;9.20;7.28;;;18.10;86.20;;;18.62;48.90;100170.28;5052443;28;20041;-77
2022/11/11 05:00:44;;;;;;;10.18;7.93;;;18.20;86.10;;;18.60;48.80;100171.69;5065618;28;20114;-78
2022/11/11 05:03:15;;;;;;;11.77;9.15;;;18.20;85.60;;;18.56;48.79;100174.19;5034239;28;20052;-77
2022/11/11 05:11:24;;;;;;;11.50;8.88;;;18.20;85.80;;;18.63;48.98;100212.31;5044992;28;20041;-77
2022/11/11 05:22:28;;;;;;;12.55;8.68;;;18.20;85.40;;;18.57;48.54;100219.78;5046982;28;20479;-77
2022/11/11 05:27:39;;;;;;;11.70;8.32;;;18.10;85.70;;;18.58;49.08;100215.13;5046593;28;20467;-77
2022/11/11 05:30:07;;;;;;;10.15;7.68;;;18.10;86.00;;;18.56;48.77;100214.59;5046030;28;20040;-77
2022/11/11 05:32:33;;;;;;;11.85;8.18;;;18.10;85.90;;;18.57;48.43;100210.72;5039371;28;20144;-77
2022/11/11 05:34:59;;;;;;;9.48;7.90;;;18.20;85.40;;;18.55;48.36;100205.53;5036070;28;20051;-77
2022/11/11 05:37:25;;;;;;;9.25;7.15;;;18.20;85.20;;;18.51;48.33;100200.91;5045520;28;20049;-77
2022/11/11 05:39:51;;;;;;;12.30;8.30;;;18.20;85.10;;;18.54;48.59;100209.38;5069605;28;20047;-78
2022/11/11 05:42:17;;;;;;;11.05;8.02;;;18.20;85.30;;;18.55;48.75;100208.28;5043646;28;20044;-78
2022/11/11 05:44:44;;;;;;;13.43;8.23;;;18.10;85.60;;;18.60;48.70;100213.72;5034596;28;20527;-78
2022/11/11 05:47:10;;;;;;;8.73;6.93;;;18.10;85.90;;;18.53;48.50;100229.72;5055210;28;20064;-79
2022/11/11 05:49:36;;;;;;;11.32;7.80;;;18.10;85.40;;;18.51;48.52;100237.44;5034773;28;20523;-78
2022/11/11 05:52:03;;;;;;;9.57;7.93;;;18.20;85.20;;;18.53;48.39;100237.16;5019349;28;20045;-78
2022/11/11 05:54:29;;;;;;;11.63;7.65;;;18.30;85.20;;;18.53;48.41;100239.91;5052160;28;20049;-79
2022/11/11 05:56:55;;;;;;;10.35;7.93;;;18.30;85.00;;;18.55;48.62;100234.94;5052619;28;20044;-78
2022/11/11 05:59:21;;;;;;;9.57;7.30;;;18.20;85.00;;;18.55;48.37;100243.19;5057410;28;20041;-78
2022/11/11 06:01:47;;;;;;;12.40;8.75;;;18.20;85.10;;;18.57;48.41;100241.78;5053309;28;20037;-77
2022/11/11 06:04:13;;;;;;;12.32;8.00;;;18.30;85.20;;;18.55;48.99;100244.00;5065153;28;20048;-81
2022/11/11 06:06:39;;;;;;;11.02;7.38;;;18.10;85.80;;;18.59;49.02;100244.22;5039315;28;20044;-77
2022/11/11 06:09:05;;;;;;;8.18;6.57;;;18.10;86.10;;;18.57;48.96;100235.44;5062598;28;20051;-76
2022/11/11 06:11:31;;;;;;;9.02;7.38;;;18.20;85.90;;;18.53;48.76;100239.91;5050660;28;20044;-76
2022/11/11 06:13:57;;;;;;;16.98;8.13;;;18.20;85.50;;;18.58;48.60;100242.59;5066403;28;20033;-77
2022/11/11 06:16:24;;;;;;;9.70;7.07;;;18.30;85.40;;;18.59;48.73;100241.47;5060479;28;20192;-76
2022/11/11 06:18:50;;;;;;;11.13;7.70;;;18.30;85.30;;;18.60;48.66;100243.94;5038764;28;20082;-76
2022/11/11 06:21:16;;;;;;;12.60;7.93;;;18.40;85.40;;;18.59;48.74;100244.22;5054562;28;20499;-76
2022/11/11 06:23:43;;;;;;;9.75;7.85;;;18.30;85.50;;;18.58;48.88;100237.91;5057995;28;20398;-76
2022/11/11 06:26:13;;;;;;;11.65;7.97;;;18.30;85.50;;;18.59;48.68;100244.22;5023253;28;20442;-76
2022/11/11 06:28:40;;;;;;;9.60;7.63;;;18.40;85.30;;;18.59;48.61;100242.28;5035368;28;20157;-77
2022/11/11 06:31:07;;;;;;;9.13;6.97;;;18.40;85.20;;;18.59;48.16;100238.72;5052089;28;20119;-76
2022/11/11 06:33:36;;;;;;;12.32;7.38;;;18.40;85.10;;;18.62;48.58;100247.22;5036311;28;20106;-76
2022/11/11 06:36:03;;;;;;;10.27;7.88;;;18.40;85.10;;;18.64;48.67;100242.22;5034340;28;20040;-76
2022/11/11 06:38:30;;;;;;;8.20;6.20;;;18.30;85.30;;;18.66;48.66;100242.75;5033148;28;20942;-76
2022/11/11 06:40:56;;;;;;;12.38;8.48;;;18.40;85.40;;;18.62;48.62;100246.38;5032469;28;20036;-76
2022/11/11 06:43:22;;;;;;;8.38;7.07;;;18.40;85.30;;;18.63;48.42;100245.28;5046456;28;20044;-77
2022/11/11 06:45:52;;;;;;;10.43;7.47;;;18.40;85.10;;;18.65;48.40;100246.63;5038242;28;20063;-77
2022/11/11 06:48:20;;;;;;;8.98;7.45;;;18.40;85.00;;;18.68;48.47;100252.66;5037677;28;20049;-83
2022/11/11 06:50:46;;;;;;;9.73;7.32;;;18.40;84.90;;;18.66;48.75;100244.69;5042102;28;20561;-84
2022/11/11 06:53:15;;;;;;;9.20;7.72;;;18.40;85.10;;;18.69;48.68;100237.78;5025255;28;20040;-78
2022/11/11 06:55:41;;;;;;;10.15;7.68;;;18.40;85.30;;;18.66;48.78;100245.50;5032733;28;20047;-81
2022/11/11 06:58:10;;;;;;;15.90;6.63;;;18.40;85.40;;;18.69;48.48;100244.09;5057120;28;20200;-80
2022/11/11 07:00:37;;;;;;;8.82;7.05;;;18.40;85.20;;;18.73;48.46;100245.16;5055425;28;20041;-81
2022/11/11 07:03:04;;;;;;;9.35;6.60;;;18.40;85.00;;;18.70;48.52;100251.25;5053200;28;20039;-81
2022/11/11 07:05:30;;;;;;;9.55;7.18;;;18.50;85.00;;;18.69;48.49;100244.09;5036843;28;20066;-80
2022/11/11 07:07:56;;;;;;;9.93;7.43;;;18.50;84.80;;;18.71;48.59;100254.81;5026793;28;20048;-80
2022/11/11 07:10:22;;;;;;;9.90;7.78;;;18.50;85.20;;;18.71;48.67;100258.38;5047497;28;20044;-81
2022/11/11 07:12:48;;;;;;;10.40;7.13;;;18.50;85.40;;;18.74;48.57;100252.28;5024597;28;20724;-81
2022/11/11 07:15:14;;;;;;;11.32;7.45;;;18.50;85.40;;;18.74;48.48;100248.72;5024936;28;20947;-81
2022/11/11 07:17:40;;;;;;;11.88;6.82;;;18.40;85.00;;;18.72;48.56;100242.69;5032452;28;20048;-80
2022/11/11 07:20:07;;;;;;;12.32;8.63;;;18.40;84.90;;;18.74;48.37;100245.97;5065600;28;20041;-81
2022/11/11 07:22:36;;;;;;;9.38;7.35;;;18.50;85.00;;;18.77;48.28;100239.91;5050620;28;20029;-80
2022/11/11 07:25:03;;;;;;;9.32;6.95;;;18.50;84.80;;;18.76;48.68;100239.09;5055432;28;20044;-81
2022/11/11 07:27:29;;;;;;;9.35;6.72;;;18.50;85.20;;;18.79;48.59;100244.00;5039492;28;20521;-80
2022/11/11 07:29:55;;;;;;;11.38;7.03;;;18.50;85.30;;;18.80;48.40;100242.06;5049871;28;20370;-81
2022/11/11 07:32:21;;;;;;;8.40;7.20;;;18.50;85.00;;;18.81;48.26;100239.06;5049322;28;20047;-81
2022/11/11 07:34:49;;;;;;;8.13;6.13;;;18.50;84.90;;;18.80;48.38;100225.59;5053453;28;20040;-81
2022/11/11 07:37:15;;;;;;;8.27;6.78;;;18.50;84.70;;;18.80;48.34;100228.34;5037731;28;20494;-81
2022/11/11 07:39:41;;;;;;;9.65;7.03;;;18.60;84.80;;;18.82;48.45;100228.88;5037002;28;20039;-81
2022/11/11 07:42:07;;;;;;;10.13;6.95;;;18.60;84.80;;;18.81;48.54;100225.31;5042048;28;20043;-80
2022/11/11 07:44:34;;;;;;;7.28;6.20;;;18.60;85.20;;;18.82;48.75;100226.94;5043479;28;20402;-81
2022/11/11 07:47:00;;;;;;;9.07;7.35;;;18.60;85.20;;;18.82;48.50;100215.94;5040399;28;20055;-81
2022/11/11 07:49:26;;;;;;;9.43;7.00;;;18.60;85.10;;;18.82;48.46;100204.94;5050647;28;20451;-80
2022/11/11 07:51:53;;;;;;;10.25;6.57;;;18.60;84.90;;;18.81;48.14;100206.06;5032474;28;20094;-80
2022/11/11 07:54:19;;;;;;;9.13;6.25;;;18.70;85.00;;;18.83;48.36;100211.28;5020339;28;20072;-80
2022/11/11 07:56:45;;;;;;;10.20;6.82;;;18.60;84.80;;;18.85;48.56;100209.03;5046420;28;20485;-76
2022/11/11 07:59:11;;;;;;;10.57;6.97;;;18.70;85.00;;;18.83;48.51;100205.78;5028057;28;20059;-76
2022/11/11 08:01:37;;;;;;;9.35;7.20;;;18.60;85.00;;;18.84;48.50;100205.47;5032987;28;20040;-77
2022/11/11 08:04:03;;;;;;;10.25;6.78;;;18.70;85.10;;;18.84;48.39;100201.91;5032164;28;20044;-77
2022/11/11 08:06:29;;;;;;;11.27;7.22;;;18.70;85.00;;;18.85;48.55;100206.28;5065473;28;20040;-77
2022/11/11 08:08:55;;;;;;;10.95;7.30;;;18.70;85.00;;;18.85;48.48;100193.38;5060786;28;20109;-77
2022/11/11 08:14:07;;;;;;;8.23;6.40;;;18.70;84.90;;;18.88;48.21;100202.97;5037371;28;20048;-77
2022/11/11 08:16:34;;;;;;;12.60;7.50;;;18.70;85.00;;;18.91;48.25;100212.56;5031636;28;20036;-76
2022/11/11 08:19:00;;;;;;;9.60;6.65;;;18.70;85.00;;;18.91;48.46;100210.63;5020915;28;20462;-77
2022/11/11 08:21:27;;;;;;;7.30;6.32;;;18.70;84.90;;;18.89;48.28;100204.59;5034552;28;20459;-76
2022/11/11 08:23:55;;;;;;;10.70;6.93;;;18.70;84.90;;;18.93;48.28;100204.81;5046725;28;20273;-76
2022/11/11 08:26:22;;;;;;;8.80;6.85;;;18.70;84.70;;;18.93;48.14;100204.81;5052463;28;20044;-76
2022/11/11 08:28:48;;;;;;;9.48;7.00;;;18.70;84.50;;;18.96;48.64;100207.00;5028876;28;20484;-76
2022/11/11 08:31:14;;;;;;;8.60;5.93;;;18.70;85.00;;;18.97;48.34;100208.63;5028413;28;20055;-77
2022/11/11 08:33:40;;;;;;;11.73;6.97;;;18.80;85.00;;;18.95;48.45;100213.59;5045082;28;20041;-76
2022/11/11 08:36:06;;;;;;;10.90;6.43;;;18.80;85.10;;;18.94;48.10;100212.78;5042721;28;20053;-76
2022/11/11 08:38:36;;;;;;;9.48;6.40;;;18.80;84.80;;;18.94;48.16;100215.53;5043193;28;20511;-77
2022/11/11 08:41:03;;;;;;;9.77;6.75;;;18.80;84.60;;;18.97;48.27;100216.84;5051108;28;20037;-77
2022/11/11 08:43:31;;;;;;;6.80;6.10;;;18.80;84.50;;;18.97;48.31;100212.16;5029632;28;20119;-76
2022/11/11 08:45:59;;;;;;;10.15;6.55;;;18.80;84.40;;;19.02;48.42;100216.78;5039628;28;20052;-77
2022/11/11 08:48:25;;;;;;;8.90;7.22;;;18.90;84.70;;;19.03;48.37;100229.41;5062725;28;20048;-80
2022/11/11 08:50:52;;;;;;;12.18;6.45;;;18.80;84.70;;;19.00;48.14;100227.25;5015392;28;20157;-80
2022/11/11 08:53:19;;;;;;;9.45;6.38;;;18.80;84.60;;;19.01;48.24;100234.41;5018077;28;20067;-80
2022/11/11 08:55:45;;;;;;;8.75;6.30;;;18.80;84.50;;;19.02;48.19;100225.03;5028311;28;20527;-80
2022/11/11 08:58:12;;;;;;;7.68;6.10;;;18.90;84.50;;;19.01;47.85;100234.41;5052117;28;20418;-79
2022/11/11 09:00:38;;;;;;;9.52;7.30;;;18.90;84.60;;;19.02;48.35;100238.78;5026873;28;20107;-79
2022/11/11 09:03:10;;;;;;;7.78;5.85;;;18.90;84.70;;;19.05;48.25;100232.69;5033873;28;20517;-81
2022/11/11 09:05:40;;;;;;;9.70;6.97;;;18.90;84.70;;;19.06;48.36;100221.41;5022411;28;20066;-81
2022/11/11 09:08:07;;;;;;;8.88;6.47;;;19.00;84.80;;;19.07;48.09;100217.53;5030222;28;20813;-81
2022/11/11 09:10:36;;;;;;;8.52;6.55;;;18.90;84.40;;;19.07;48.16;100216.72;5045289;28;20075;-81
2022/11/11 09:13:02;;;;;;;9.05;6.47;;;18.90;84.40;;;19.09;47.97;100203.50;5033993;28;20044;-81
2022/11/11 09:15:28;;;;;;;6.47;5.20;;;19.00;84.40;;;19.03;48.13;100191.75;5045069;28;20037;-81
2022/11/11 09:17:54;;;;;;;10.85;6.55;;;19.00;84.40;;;19.03;47.60;100199.16;5058444;28;20041;-81
2022/11/11 09:20:23;;;;;;;7.15;5.78;;;18.90;83.70;;;19.01;47.33;100202.22;5043937;28;20041;-81
2022/11/11 09:22:50;;;;;;;8.18;5.55;;;18.90;83.40;;;19.01;47.33;100201.41;5075361;28;20071;-81
2022/11/11 09:25:16;;;;;;;6.72;5.85;;;18.90;83.20;;;19.02;47.03;100216.78;5043842;28;20051;-81
2022/11/11 09:27:43;;;;;;;7.55;5.60;;;18.90;83.20;;;19.02;46.72;100208.53;5039223;28;20055;-81
2022/11/11 09:30:10;;;;;;;12.65;6.25;;;18.90;83.00;;;19.04;46.52;100204.38;5057103;28;20082;-81
2022/11/11 09:32:36;;;;;;;8.85;5.22;;;18.80;82.50;;;19.02;46.50;100208.53;5055027;28;20402;-81
2022/11/11 09:35:03;;;;;;;8.05;5.47;;;18.80;82.70;;;19.04;46.45;100215.38;5046957;28;20090;-80
2022/11/11 09:37:29;;;;;;;6.90;5.00;;;18.80;82.50;;;19.02;46.40;100220.34;5046921;28;20070;-80
2022/11/11 09:39:55;;;;;;;7.60;4.78;;;18.80;82.60;;;19.02;46.27;100220.34;5046666;28;20045;-81
2022/11/11 09:42:37;;;;;;;7.38;4.70;;;18.70;82.50;;;19.00;46.29;100221.75;5064137;28;20454;-81
2022/11/11 09:45:28;;;;;;;6.97;4.88;;;18.70;82.50;;;18.91;46.30;100216.13;5043300;28;20085;-81
2022/11/11 09:48:02;;;;;;;8.45;5.15;;;18.60;82.60;;;18.95;46.31;100227.34;5064097;28;20041;-81
2022/11/11 09:50:30;;;;;;;8.18;4.75;;;18.60;82.60;;;18.97;46.23;100227.84;5040687;28;20043;-81
2022/11/11 09:53:03;;;;;;;9.68;4.25;;;18.70;82.60;;;19.00;45.95;100236.31;5050499;28;20444;-81
2022/11/11 09:55:39;;;;;;;8.73;5.03;;;18.60;82.40;;;18.96;46.08;100234.47;5034044;28;20047;-81
2022/11/11 09:58:25;;;;;;;5.82;4.15;;;18.60;82.30;;;18.89;46.29;100234.03;5046415;28;20041;-81
2022/11/11 10:01:25;;;;;;;6.10;3.90;;;18.70;82.40;;;18.91;46.14;100229.06;5052635;28;20040;-81
2022/11/11 10:04:03;;;;;;;4.45;3.80;;;18.70;82.20;;;18.85;46.41;100229.13;5039706;28;20048;-81
2022/11/11 10:06:30;;;;;;;7.10;4.30;;;18.60;83.00;;;18.93;46.13;100222.16;5047587;28;20097;-81
2022/11/11 10:09:20;;;;;;;5.65;4.00;;;18.60;82.20;;;19.02;45.70;100225.03;5035670;28;20076;-80
2022/11/11 10:12:13;;;;;;;6.30;4.93;;;18.60;82.20;;;19.00;45.82;100221.75;5027531;28;20051;-80
2022/11/11 10:14:41;;;;;;;8.85;4.45;;;18.70;82.10;;;18.96;45.98;100217.97;5050708;28;20061;-80
2022/11/11 10:18:11;;;;;;;5.38;4.13;;;18.70;82.00;;;18.97;45.89;100214.09;5040176;28;20047;-81
2022/11/11 10:20:41;;;;;;;8.75;4.28;;;18.70;81.80;;;19.04;45.82;100200.81;5052965;28;20091;-80
2022/11/11 10:23:31;;;;;;;8.68;4.78;;;18.70;81.90;;;19.04;45.96;100200.81;5036036;28;20464;-81
2022/11/11 10:26:01;;;;;;;6.13;3.97;;;18.70;82.00;;;19.03;45.73;100205.50;5037740;28;20068;-80
2022/11/11 10:28:30;;;;;;;5.40;4.57;;;18.70;82.00;;;19.02;45.99;100205.78;5023658;28;20095;-81
2022/11/11 10:30:56;;;;;;;7.40;4.30;;;18.70;81.90;;;18.96;45.67;100215.22;5049713;28;20057;-80
2022/11/11 10:33:29;;;;;;;7.32;3.78;;;18.80;81.70;;;18.96;46.03;100209.75;5025068;28;20048;-80
2022/11/11 10:35:56;;;;;;;5.50;4.40;;;18.80;81.70;;;18.92;46.19;100206.75;5035240;28;20430;-80
2022/11/11 10:38:46;;;;;;;8.13;4.15;;;18.90;81.70;;;18.95;45.99;100205.34;5035432;28;20052;-79
2022/11/11 10:41:37;;;;;;;11.25;4.55;;;18.80;81.70;;;18.94;46.06;100207.28;5055430;28;20048;-80
2022/11/11 10:44:30;;;;;;;8.30;3.92;;;18.80;81.70;;;18.93;46.01;100213.91;5051841;28;20040;-80
2022/11/11 10:47:33;;;;;;;6.80;3.88;;;18.80;81.80;;;18.88;46.45;100213.97;5036058;28;20045;-80
2022/11/11 10:50:20;;;;;;;;;;;18.80;81.70;;;18.91;46.15;100210.63;5026358;28;20561;-81
2022/11/11 10:53:24;;;;;;;4.15;3.10;;;18.90;81.80;;;18.94;46.13;100206.47;5054452;28;19920;-80
2022/11/11 10:56:01;;;;;;;7.78;3.88;;;18.90;81.60;;;19.01;45.82;100201.41;5059878;28;20036;-81
2022/11/11 10:58:47;;;;;;;4.15;3.42;;;18.90;81.60;;;19.02;46.10;100195.59;5036055;28;20040;-81
2022/11/11 11:01:21;;;;;;;6.28;4.30;;;18.90;81.60;;;18.97;45.96;100194.88;5039528;28;20086;-81
2022/11/11 11:04:45;;;;;;;8.88;5.07;;;18.90;81.50;;;19.00;46.00;100192.31;5034263;28;20040;-81
2022/11/11 11:07:15;;;;;;;7.53;3.90;;;19.00;81.40;;;19.00;45.94;100188.75;5048110;28;20037;-81
2022/11/11 11:10:00;;;;;;;10.93;3.97;;;19.00;81.40;;;19.00;45.97;100178.59;5018494;28;20122;-81
2022/11/11 11:12:55;;;;;;;6.05;3.80;;;19.00;81.80;;;19.07;46.01;100183.72;5028886;28;20460;-81
2022/11/11 11:15:22;;;;;;;7.43;4.10;;;19.00;81.20;;;19.05;46.13;100183.19;5046639;28;20048;-81
2022/11/11 11:18:02;;;;;;;7.95;4.85;;;19.10;81.30;;;19.06;45.74;100190.34;5036852;28;20040;-81
2022/11/11 11:20:28;;;;;;;6.93;3.92;;;19.10;81.20;;;19.06;46.00;100179.34;5051047;28;20338;-81
2022/11/11 11:22:58;;;;;;;7.43;3.88;;;19.10;81.30;;;19.10;45.83;100174.88;5018565;28;20137;-80
2022/11/11 11:25:25;;;;;;;5.93;3.65;;;19.10;81.30;;;19.09;45.86;100171.31;5016228;28;20048;-80
2022/11/11 11:27:53;;;;;;;7.03;4.00;;;19.10;81.30;;;19.15;45.89;100177.56;5036106;28;20055;-80
2022/11/11 11:30:22;;;;;;;9.35;5.20;;;19.10;81.50;;;19.22;45.64;100166.19;5049936;28;20461;-80